Time;durP1;ratioP1;P1;durP2;ratioP2;P2;SDS_P1;SDS_P2;PMS_P1;PMS_P2;Temp;Humidity;BMP_temperature;BMP_pressure;BME280_temperature;BME280_humidity;BME280_pressure;Samples;Min_cycle;Max_cycle;Signal;HPM_P1;HPM_P2
2023/08/05 00:01:13;;;;;;;1.25;1.15;;;;;;;16.85;100.00;97041.81;1223501;75;2923449;-70
2023/08/05 00:03:46;;;;;;;1.10;1.00;;;;;;;17.10;100.00;97039.56;1224802;75;2921667;-68
2023/08/05 00:06:19;;;;;;;1.15;0.90;;;;;;;17.21;100.00;97038.56;1223463;75;2928831;-69
2023/08/05 00:08:51;;;;;;;0.50;0.50;;;;;;;17.24;100.00;97035.50;1223457;75;2920700;-68
2023/08/05 00:11:26;;;;;;;1.20;1.10;;;;;;;16.81;100.00;97041.41;1222579;75;2928633;-71
2023/08/05 00:13:59;;;;;;;1.90;1.50;;;;;;;16.64;100.00;97044.47;1222776;75;3042746;-70
2023/08/05 00:16:32;;;;;;;2.25;1.60;;;;;;;16.66;100.00;97016.31;1223925;75;2925176;-69
2023/08/05 00:19:04;;;;;;;1.50;1.40;;;;;;;16.69;100.00;96977.28;1223564;75;2929225;-67
2023/08/05 00:21:40;;;;;;;2.50;1.50;;;;;;;16.71;100.00;96957.41;1223824;75;2925339;-67
2023/08/05 00:24:12;;;;;;;2.55;1.85;;;;;;;16.86;100.00;96965.91;1224191;75;2930604;-67
2023/08/05 00:26:48;;;;;;;2.00;1.45;;;;;;;16.86;100.00;96978.97;1224329;75;2921206;-69
2023/08/05 00:29:20;;;;;;;1.25;0.95;;;;;;;17.04;100.00;96983.63;1223241;75;2922485;-68
2023/08/05 00:31:53;;;;;;;1.00;0.80;;;;;;;17.07;100.00;96970.75;1222993;75;2924403;-68
2023/08/05 00:34:25;;;;;;;0.70;0.70;;;;;;;17.10;100.00;96977.97;1224593;75;2919991;-70
2023/08/05 00:36:58;;;;;;;1.60;1.50;;;;;;;16.63;100.00;96993.25;1223482;75;2927661;-67
2023/08/05 00:39:30;;;;;;;1.45;1.35;;;;;;;16.59;100.00;97001.84;1223287;75;2926982;-68
2023/08/05 00:42:06;;;;;;;2.00;1.40;;;;;;;16.94;100.00;96977.06;1222229;75;2928408;-67
2023/08/05 00:44:39;;;;;;;1.05;0.95;;;;;;;17.09;100.00;96974.44;1223787;75;2928266;-69
2023/08/05 00:47:11;;;;;;;1.75;1.15;;;;;;;16.86;100.00;96967.91;1223372;75;2931475;-67
2023/08/05 00:49:44;;;;;;;1.65;1.10;;;;;;;16.97;100.00;96964.91;1223132;75;2921055;-66
2023/08/05 00:52:19;;;;;;;1.10;1.00;;;;;;;16.91;100.00;96962.28;1223219;75;2921331;-68
2023/08/05 00:54:52;;;;;;;1.60;1.25;;;;;;;16.69;100.00;96982.06;1223713;75;2920031;-66
2023/08/05 00:57:29;;;;;;;1.55;1.35;;;;;;;16.62;100.00;96989.00;1224092;75;2923122;-68
2023/08/05 01:00:01;;;;;;;2.00;1.40;;;;;;;16.94;100.00;96991.63;1223341;75;2927244;-65
2023/08/05 01:02:34;;;;;;;1.20;1.10;;;;;;;17.00;100.00;96986.72;1222251;75;2930654;-67
2023/08/05 01:05:07;;;;;;;1.40;1.00;;;;;;;16.87;100.00;96981.22;1223375;75;2923254;-67
2023/08/05 01:07:42;;;;;;;0.90;0.90;;;;;;;17.12;100.00;96954.00;1222891;75;2929804;-68
2023/08/05 01:10:15;;;;;;;1.05;0.90;;;;;;;16.94;100.00;96933.56;1223336;75;2922210;-67
2023/08/05 01:12:51;;;;;;;0.80;0.80;;;;;;;17.09;100.00;96938.50;1224177;75;2926300;-66
2023/08/05 01:15:24;;;;;;;1.90;1.25;;;;;;;16.74;100.00;96954.31;1223210;75;2923381;-66
2023/08/05 01:17:59;;;;;;;1.45;1.15;;;;;;;16.76;100.00;96946.25;1224255;75;2926906;-68
2023/08/05 01:20:40;;;;;;;1.20;1.00;;;;;;;16.92;100.00;96933.34;1223133;75;2921707;-69
2023/08/05 01:23:21;;;;;;;1.45;1.20;;;;;;;16.75;100.00;96916.38;1223449;75;2925151;-69
2023/08/05 01:25:57;;;;;;;1.30;1.00;;;;;;;16.85;100.00;96919.44;1223496;75;2926337;-68
2023/08/05 01:28:30;;;;;;;1.30;1.15;;;;;;;17.08;100.00;96939.78;1224310;75;2928825;-69
2023/08/05 01:31:04;;;;;;;1.30;1.10;;;;;;;16.71;100.00;96954.63;1223139;75;2927977;-67
2023/08/05 01:33:38;;;;;;;2.75;1.45;;;;;;;16.88;100.00;96963.34;1224075;75;2927156;-68
2023/08/05 01:36:10;;;;;;;2.00;1.10;;;;;;;16.64;100.00;96969.09;1223012;75;2922377;-70
2023/08/05 01:38:43;;;;;;;2.70;1.45;;;;;;;16.49;100.00;96975.19;1223956;75;2927313;-69
2023/08/05 01:41:18;;;;;;;2.35;1.60;;;;;;;16.48;100.00;96973.72;1223601;75;2947577;-68
2023/08/05 01:43:51;;;;;;;2.35;1.75;;;;;;;16.42;100.00;96986.88;1223755;75;2923026;-69
2023/08/05 01:46:23;;;;;;;2.75;1.80;;;;;;;16.54;100.00;96997.16;1223804;75;2923646;-69
2023/08/05 01:48:56;;;;;;;2.35;1.65;;;;;;;16.33;100.00;97001.84;1223551;75;2923166;-68
2023/08/05 01:51:29;;;;;;;3.15;1.80;;;;;;;16.34;100.00;96975.72;1224217;75;2921489;-68
2023/08/05 01:54:01;;;;;;;1.70;1.40;;;;;;;16.80;100.00;96960.50;1223230;75;2926322;-69
2023/08/05 01:56:36;;;;;;;1.25;1.10;;;;;;;16.87;100.00;96963.91;1223850;75;2923165;-71
2023/08/05 01:59:09;;;;;;;1.20;1.00;;;;;;;16.79;100.00;96964.53;1223428;75;2924542;-69
2023/08/05 02:01:45;;;;;;;3.10;1.40;;;;;;;16.65;100.00;96960.28;1222993;75;2924857;-69
2023/08/05 02:04:18;;;;;;;1.10;0.90;;;;;;;16.93;100.00;96945.91;1223359;75;2921445;-65
2023/08/05 02:06:51;;;;;;;2.10;1.30;;;;;;;16.36;100.00;96920.69;1223774;75;2926115;-70
2023/08/05 02:09:24;;;;;;;2.75;1.75;;;;;;;16.46;100.00;96918.25;1223152;75;2921727;-67
2023/08/05 02:11:59;;;;;;;1.40;1.25;;;;;;;16.77;100.00;96911.06;1223316;75;2925008;-69
2023/08/05 02:14:31;;;;;;;1.30;1.00;;;;;;;16.93;100.00;96909.19;1223419;75;2926012;-70
2023/08/05 02:17:04;;;;;;;1.30;1.20;;;;;;;16.87;100.00;96883.72;1219554;75;3160297;-69
2023/08/05 02:19:37;;;;;;;1.75;1.15;;;;;;;16.74;100.00;96895.53;1223299;75;2919332;-67
2023/08/05 02:22:09;;;;;;;1.65;1.30;;;;;;;16.68;100.00;96886.63;1223392;75;2923221;-69
2023/08/05 02:24:42;;;;;;;1.45;1.15;;;;;;;16.70;100.00;96887.56;1223656;75;2920899;-68
2023/08/05 02:27:17;;;;;;;1.60;1.20;;;;;;;16.81;100.00;96887.34;1223277;75;2921910;-69
2023/08/05 02:29:50;;;;;;;1.20;1.00;;;;;;;16.60;100.00;96886.53;1223652;75;2927600;-71
2023/08/05 02:32:22;;;;;;;2.50;1.50;;;;;;;16.35;100.00;96897.84;1222576;75;2921685;-69
2023/08/05 02:34:55;;;;;;;1.95;1.50;;;;;;;16.58;100.00;96902.91;1223927;75;2923154;-68
2023/08/05 02:37:27;;;;;;;1.60;1.40;;;;;;;16.58;100.00;96900.88;1222913;75;2926358;-69
2023/08/05 02:40:00;;;;;;;1.60;1.40;;;;;;;16.71;100.00;96896.59;1223233;75;2926971;-67
2023/08/05 02:42:35;;;;;;;1.90;1.70;;;;;;;16.79;100.00;96894.72;1222850;75;2925334;-68
2023/08/05 02:45:09;;;;;;;1.30;1.20;;;;;;;16.79;100.00;96891.94;1224064;75;2928283;-68
2023/08/05 02:47:42;;;;;;;1.70;1.30;;;;;;;16.53;100.00;96873.38;1223428;75;2928077;-69
2023/08/05 02:50:15;;;;;;;2.05;1.70;;;;;;;16.48;100.00;96877.00;1223906;75;2925603;-68
2023/08/05 02:52:48;;;;;;;2.35;1.75;;;;;;;16.44;100.00;96874.56;1223749;75;2923586;-69
2023/08/05 02:55:20;;;;;;;1.95;1.60;;;;;;;16.78;100.00;96871.81;1223020;75;2932005;-70
2023/08/05 02:57:55;;;;;;;1.60;1.50;;;;;;;16.69;100.00;96863.22;1223435;75;2921690;-67
2023/08/05 03:00:28;;;;;;;2.10;1.70;;;;;;;16.69;100.00;96850.16;1222317;75;2920470;-67
2023/08/05 03:03:00;;;;;;;3.30;1.25;;;;;;;16.60;100.00;96856.88;1222534;75;2937580;-67
2023/08/05 03:05:33;;;;;;;2.65;1.65;;;;;;;16.68;100.00;96854.19;1222895;75;2924409;-66
2023/08/05 03:08:06;;;;;;;1.55;1.25;;;;;;;16.92;100.00;96853.16;1223846;75;2921236;-66
2023/08/05 03:10:40;;;;;;;1.05;0.95;;;;;;;16.91;100.00;96846.16;1223661;75;2926453;-69
2023/08/05 03:13:15;;;;;;;1.20;1.10;;;;;;;16.75;100.00;96852.78;1222725;75;2950017;-71
2023/08/05 03:15:47;;;;;;;1.00;0.90;;;;;;;16.83;100.00;96853.63;1223451;75;2907519;-69
2023/08/05 03:18:20;;;;;;;1.40;1.20;;;;;;;16.93;100.00;96862.19;1224371;75;2922631;-70
2023/08/05 03:20:53;;;;;;;0.80;0.80;;;;;;;16.96;100.00;96856.34;1223004;75;2927416;-66
2023/08/05 03:23:26;;;;;;;0.80;0.80;;;;;;;17.02;100.00;96848.66;1223857;75;2924580;-73
2023/08/05 03:25:58;;;;;;;0.95;0.80;;;;;;;16.94;100.00;96852.66;1224486;75;2925612;-66
2023/08/05 03:28:34;;;;;;;1.95;0.85;;;;;;;16.82;100.00;96855.66;1223198;75;2923894;-66
2023/08/05 03:31:06;;;;;;;1.00;0.80;;;;;;;16.64;100.00;96856.53;1223387;75;2919959;-69
2023/08/05 03:33:39;;;;;;;1.60;1.05;;;;;;;16.66;100.00;96865.03;1224344;75;2926645;-68
2023/08/05 03:36:11;;;;;;;2.00;1.25;;;;;;;16.34;100.00;96860.44;1223603;75;2924661;-67
2023/08/05 03:38:44;;;;;;;1.70;1.40;;;;;;;16.39;100.00;96859.59;1223860;75;2920126;-67
2023/08/05 03:41:17;;;;;;;1.80;1.40;;;;;;;16.49;100.00;96859.88;1223260;75;2929392;-68
2023/08/05 03:43:52;;;;;;;1.85;1.50;;;;;;;16.25;100.00;96863.66;1224242;75;2925212;-67
2023/08/05 03:46:24;;;;;;;2.50;1.75;;;;;;;16.14;100.00;96869.41;1223656;75;2918175;-67
2023/08/05 03:48:57;;;;;;;1.95;1.75;;;;;;;16.38;100.00;96871.94;1224056;75;2917339;-68
2023/08/05 03:51:30;;;;;;;2.65;1.70;;;;;;;16.35;100.00;96863.94;1223981;75;2923076;-67
2023/08/05 03:54:02;;;;;;;2.15;1.75;;;;;;;16.44;100.00;96862.78;1223921;75;2922687;-69
2023/08/05 03:56:35;;;;;;;2.30;1.55;;;;;;;16.47;100.00;96853.41;1223320;75;2925269;-68
2023/08/05 03:59:10;;;;;;;1.60;1.50;;;;;;;16.19;100.00;96849.22;1224452;75;2919723;-68
2023/08/05 04:01:43;;;;;;;2.35;1.60;;;;;;;16.29;100.00;96853.03;1222853;75;2938568;-67
2023/08/05 04:04:17;;;;;;;3.00;1.50;;;;;;;16.31;100.00;96852.50;1224457;75;2920395;-71
2023/08/05 04:06:50;;;;;;;1.80;1.60;;;;;;;16.41;100.00;96850.78;1223861;75;2925257;-68
2023/08/05 04:09:24;;;;;;;1.95;1.30;;;;;;;16.63;100.00;96843.28;1223625;75;2925639;-67
2023/08/05 04:11:58;;;;;;;2.25;1.50;;;;;;;16.44;100.00;96826.88;1222362;75;2927062;-68
2023/08/05 04:14:34;;;;;;;2.95;2.45;;;;;;;16.25;100.00;96811.19;1223746;75;2927665;-68
2023/08/05 04:17:08;;;;;;;2.45;1.90;;;;;;;16.44;100.00;96816.53;1223756;75;2918248;-69
2023/08/05 04:19:41;;;;;;;2.65;1.90;;;;;;;16.47;100.00;96818.22;1224416;75;2923847;-69
2023/08/05 04:22:15;;;;;;;2.40;1.80;;;;;;;16.70;100.00;96826.03;1222437;75;2938389;-67
2023/08/05 04:24:49;;;;;;;2.25;1.50;;;;;;;16.59;100.00;96827.00;1223856;75;2921353;-66
2023/08/05 04:27:21;;;;;;;1.40;1.30;;;;;;;16.68;100.00;96812.75;1223258;75;2925488;-67
2023/08/05 04:29:58;;;;;;;1.65;1.50;;;;;;;16.90;100.00;96808.72;1223719;75;2922606;-69
2023/08/05 04:32:30;;;;;;;1.40;1.10;;;;;;;16.69;100.00;96807.94;1223236;75;2921036;-70
2023/08/05 04:35:03;;;;;;;2.75;1.95;;;;;;;16.66;100.00;96800.75;1223963;75;2922798;-69
2023/08/05 04:37:35;;;;;;;2.05;1.40;;;;;;;16.76;100.00;96791.47;1223921;75;2921776;-68
2023/08/05 04:40:09;;;;;;;2.05;1.55;;;;;;;16.85;100.00;96798.56;1222810;75;2937957;-70
2023/08/05 04:42:42;;;;;;;2.25;1.45;;;;;;;16.81;100.00;96790.63;1223684;75;2922473;-67
2023/08/05 04:45:18;;;;;;;2.25;2.05;;;;;;;16.68;100.00;96796.16;1222600;75;2927897;-66
2023/08/05 04:47:50;;;;;;;1.90;1.40;;;;;;;16.76;100.00;96788.69;1223168;75;2923101;-68
2023/08/05 04:50:23;;;;;;;4.90;1.70;;;;;;;16.68;100.00;96776.81;1223651;75;2925184;-69
2023/08/05 04:52:55;;;;;;;4.25;3.20;;;;;;;16.46;100.00;96758.00;1223996;75;2920862;-69
2023/08/05 04:55:28;;;;;;;1.80;1.70;;;;;;;16.57;100.00;96755.72;1222762;75;2922884;-69
2023/08/05 04:58:01;;;;;;;2.55;1.90;;;;;;;16.75;100.00;96762.31;1223351;75;2924021;-68
2023/08/05 05:00:36;;;;;;;4.10;3.40;;;;;;;16.72;100.00;96765.44;1223656;75;2922132;-68
2023/08/05 05:03:09;;;;;;;4.40;3.80;;;;;;;16.71;100.00;96764.69;1223782;75;2922922;-69
2023/08/05 05:05:45;;;;;;;2.55;2.30;;;;;;;16.82;100.00;96758.91;1223627;75;2918687;-67
2023/08/05 05:08:17;;;;;;;2.20;1.50;;;;;;;16.92;100.00;96761.94;1223345;75;2920661;-67
2023/08/05 05:10:50;;;;;;;2.25;1.90;;;;;;;16.77;100.00;96772.84;1222941;75;2926074;-66
2023/08/05 05:13:23;;;;;;;3.00;2.70;;;;;;;16.68;100.00;96779.56;1222530;75;2929884;-68
2023/08/05 05:15:59;;;;;;;2.60;1.80;;;;;;;16.65;100.00;96777.16;1219410;75;2927457;-68
2023/08/05 05:18:32;;;;;;;3.20;1.75;;;;;;;16.81;100.00;96771.25;1222818;75;2919913;-68
2023/08/05 05:21:05;;;;;;;6.15;4.90;;;;;;;16.86;100.00;96752.28;1223009;75;2926066;-67
2023/08/05 05:23:38;;;;;;;16.30;12.65;;;;;;;16.87;100.00;96754.53;1223608;75;2927644;-70
2023/08/05 05:26:11;;;;;;;7.00;6.25;;;;;;;16.93;100.00;96754.38;1223191;75;2924400;-68
2023/08/05 05:28:43;;;;;;;9.35;8.25;;;;;;;16.96;100.00;96751.28;1222511;75;2934638;-67
2023/08/05 05:31:18;;;;;;;4.65;4.20;;;;;;;16.93;100.00;96746.84;1222876;75;2925357;-68
2023/08/05 05:33:51;;;;;;;3.30;2.60;;;;;;;17.02;100.00;96745.59;1223338;75;2922477;-68
2023/08/05 05:36:24;;;;;;;1.90;1.70;;;;;;;16.77;100.00;96743.19;1224190;75;2925276;-69
2023/08/05 05:38:56;;;;;;;1.25;1.15;;;;;;;17.02;100.00;96740.81;1224021;75;2919499;-71
2023/08/05 05:41:29;;;;;;;0.90;0.90;;;;;;;17.17;100.00;96736.69;1222432;75;2919720;-69
2023/08/05 05:44:03;;;;;;;1.05;0.95;;;;;;;16.87;100.00;96726.88;1224069;75;2923839;-70
2023/08/05 05:46:39;;;;;;;1.20;0.90;;;;;;;16.86;100.00;96728.19;1224133;75;2922651;-66
2023/08/05 05:49:11;;;;;;;0.85;0.80;;;;;;;17.29;100.00;96726.06;1224346;75;2922681;-68
2023/08/05 05:51:45;;;;;;;1.50;0.60;;;;;;;17.20;100.00;96722.50;1222694;75;2922685;-68
2023/08/05 05:54:18;;;;;;;0.95;0.85;;;;;;;17.03;100.00;96719.47;1223940;75;2923268;-70
2023/08/05 05:56:51;;;;;;;0.80;0.80;;;;;;;17.20;100.00;96728.03;1224106;75;2928048;-67
2023/08/05 05:59:23;;;;;;;0.45;0.45;;;;;;;17.33;100.00;96732.00;1223896;75;2927015;-70
2023/08/05 06:01:59;;;;;;;0.60;0.60;;;;;;;17.34;100.00;96741.75;1222840;75;2924630;-70
2023/08/05 06:04:31;;;;;;;0.75;0.65;;;;;;;16.99;100.00;96741.91;1223212;75;2923246;-67
2023/08/05 06:07:04;;;;;;;0.80;0.70;;;;;;;16.87;100.00;96734.44;1223436;75;2929610;-67
2023/08/05 06:09:36;;;;;;;0.70;0.70;;;;;;;17.14;100.00;96741.28;1223008;75;2926989;-68
2023/08/05 06:12:11;;;;;;;1.00;0.50;;;;;;;17.21;100.00;96726.00;1218299;75;2945437;-73
2023/08/05 06:14:43;;;;;;;0.90;0.60;;;;;;;17.25;100.00;96734.72;1222767;75;2918642;-69
2023/08/05 06:17:19;;;;;;;0.45;0.40;;;;;;;17.17;100.00;96737.44;1224052;75;2917663;-70
2023/08/05 06:19:52;;;;;;;0.40;0.40;;;;;;;17.17;100.00;96742.97;1223643;75;2922959;-66
2023/08/05 06:22:24;;;;;;;0.60;0.40;;;;;;;17.35;100.00;96744.00;1222361;75;2921067;-69
2023/08/05 06:24:57;;;;;;;0.50;0.50;;;;;;;17.29;100.00;96754.44;1223347;75;2953461;-67
2023/08/05 06:27:30;;;;;;;1.10;0.50;;;;;;;17.45;100.00;96747.00;1224071;75;2920689;-70
2023/08/05 06:30:02;;;;;;;0.50;0.45;;;;;;;16.98;100.00;96751.50;1223408;75;2923497;-68
2023/08/05 06:32:37;;;;;;;0.95;0.50;;;;;;;17.23;100.00;96754.59;1222580;75;2920792;-70
2023/08/05 06:35:11;;;;;;;0.60;0.60;;;;;;;17.18;100.00;96755.50;1222569;75;2965634;-70
2023/08/05 06:37:44;;;;;;;0.45;0.45;;;;;;;17.16;100.00;96760.09;1223098;75;2920490;-68
2023/08/05 06:40:17;;;;;;;1.45;1.10;;;;;;;17.18;100.00;96752.00;1224356;75;2924406;-70
2023/08/05 06:42:50;;;;;;;1.60;1.40;;;;;;;17.29;100.00;96756.47;1223774;75;2924627;-71
2023/08/05 06:45:23;;;;;;;1.35;0.80;;;;;;;17.06;100.00;96764.63;1223388;75;2925983;-70
2023/08/05 06:47:58;;;;;;;1.25;0.60;;;;;;;17.17;100.00;96748.50;1223289;75;2919555;-69
2023/08/05 06:50:30;;;;;;;1.55;0.50;;;;;;;17.03;100.00;96750.59;1223645;75;2923703;-69
2023/08/05 06:53:03;;;;;;;0.55;0.40;;;;;;;17.02;100.00;96757.41;1221081;75;2987386;-72
2023/08/05 06:55:36;;;;;;;0.55;0.40;;;;;;;17.23;100.00;96764.94;1223133;75;2924403;-70
2023/08/05 06:58:09;;;;;;;0.30;0.30;;;;;;;17.06;100.00;96773.66;1223680;75;2920127;-71
2023/08/05 07:00:44;;;;;;;0.35;0.35;;;;;;;16.97;100.00;96776.91;1223413;75;2924960;-69
2023/08/05 07:03:19;;;;;;;1.15;0.65;;;;;;;16.69;100.00;96772.78;1223417;75;2917864;-72
2023/08/05 07:05:51;;;;;;;1.10;0.80;;;;;;;16.83;100.00;96767.94;1223862;75;2929595;-72
2023/08/05 07:08:25;;;;;;;0.50;0.50;;;;;;;16.84;100.00;96772.19;1221146;75;2941419;-68
2023/08/05 07:10:59;;;;;;;2.35;1.85;;;;;;;16.72;100.00;96770.97;1223312;75;2924231;-70
2023/08/05 07:13:32;;;;;;;2.15;1.30;;;;;;;16.64;100.00;96775.66;1222485;75;2926328;-69
2023/08/05 07:16:05;;;;;;;1.55;0.90;;;;;;;16.63;100.00;96777.69;1223751;75;2923806;-72
2023/08/05 07:18:40;;;;;;;3.05;2.00;;;;;;;16.75;100.00;96775.41;1223770;75;2922186;-72
2023/08/05 07:21:14;;;;;;;1.00;0.70;;;;;;;16.53;100.00;96765.63;1223737;75;2929304;-70
2023/08/05 07:23:47;;;;;;;1.05;0.60;;;;;;;16.66;100.00;96768.31;1223915;75;2924074;-70
2023/08/05 07:26:20;;;;;;;0.85;0.60;;;;;;;16.61;100.00;96771.97;1222874;75;2922138;-71
2023/08/05 07:28:52;;;;;;;0.80;0.70;;;;;;;16.53;100.00;96760.84;1223375;75;2930465;-70
2023/08/05 07:31:25;;;;;;;1.20;0.70;;;;;;;16.55;100.00;96760.31;1222997;75;2923690;-69
2023/08/05 07:34:01;;;;;;;0.90;0.50;;;;;;;16.52;100.00;96762.09;1223750;75;2921184;-71
2023/08/05 07:36:33;;;;;;;1.10;0.70;;;;;;;16.61;100.00;96758.88;1223147;75;2921696;-70
2023/08/05 07:39:06;;;;;;;2.60;0.50;;;;;;;16.79;100.00;96765.53;1223873;75;2927269;-72
2023/08/05 07:41:39;;;;;;;1.25;0.50;;;;;;;16.62;100.00;96756.88;1222984;75;2930056;-70
2023/08/05 07:44:12;;;;;;;0.50;0.30;;;;;;;16.72;100.00;96752.34;1223798;75;2930585;-73
2023/08/05 07:46:47;;;;;;;0.65;0.45;;;;;;;16.75;100.00;96756.06;1223665;75;2926174;-70
2023/08/05 07:49:22;;;;;;;1.15;0.60;;;;;;;16.59;100.00;96746.88;1224212;75;2919968;-69
2023/08/05 07:51:55;;;;;;;1.75;0.70;;;;;;;16.60;100.00;96751.88;1223082;75;2934311;-71
2023/08/05 07:54:28;;;;;;;0.30;0.30;;;;;;;16.82;100.00;96747.13;1198280;75;4839001;-70
2023/08/05 07:57:01;;;;;;;0.40;0.40;;;;;;;16.97;100.00;96755.53;1222811;75;2932605;-70
2023/08/05 07:59:34;;;;;;;1.25;0.70;;;;;;;16.87;100.00;96756.56;1223876;75;2924163;-74
2023/08/05 08:02:10;;;;;;;0.65;0.50;;;;;;;16.69;100.00;96753.44;1223577;75;2939454;-70
2023/08/05 08:04:48;;;;;;;0.95;0.55;;;;;;;16.76;100.00;96757.53;1223999;75;2931700;-69
2023/08/05 08:07:21;;;;;;;0.50;0.40;;;;;;;16.97;100.00;96750.00;1225031;75;2923700;-71
2023/08/05 08:09:53;;;;;;;0.60;0.40;;;;;;;17.10;100.00;96748.44;1224465;75;2922467;-71
2023/08/05 08:12:26;;;;;;;0.85;0.45;;;;;;;17.27;100.00;96757.03;1223290;75;2921910;-71
2023/08/05 08:14:59;;;;;;;0.95;0.60;;;;;;;17.14;100.00;96748.81;1223359;75;2920672;-70
2023/08/05 08:17:31;;;;;;;0.45;0.45;;;;;;;17.09;100.00;96752.47;1223905;75;2919933;-70
2023/08/05 08:20:08;;;;;;;1.10;0.50;;;;;;;17.07;100.00;96747.47;1223744;75;2924939;-73
2023/08/05 08:22:41;;;;;;;1.20;0.50;;;;;;;16.92;100.00;96750.16;1223773;75;2922326;-73
2023/08/05 08:25:13;;;;;;;0.40;0.40;;;;;;;17.05;100.00;96752.81;1223846;75;2936872;-69
2023/08/05 08:27:46;;;;;;;0.60;0.60;;;;;;;17.12;100.00;96751.41;1224578;75;2918645;-72
2023/08/05 08:30:18;;;;;;;0.95;0.70;;;;;;;17.32;100.00;96758.91;1224128;75;2928110;-68
2023/08/05 08:32:51;;;;;;;0.70;0.50;;;;;;;17.56;100.00;96755.00;1223175;75;2940755;-70
2023/08/05 08:35:26;;;;;;;1.05;0.60;;;;;;;17.46;100.00;96757.53;1223357;75;2920272;-68
2023/08/05 08:37:59;;;;;;;0.40;0.40;;;;;;;17.49;100.00;96763.25;1223824;75;2923945;-70
2023/08/05 08:40:32;;;;;;;0.50;0.40;;;;;;;17.19;100.00;96761.78;1223365;75;2924898;-70
2023/08/05 08:43:06;;;;;;;7.20;6.50;;;;;;;17.20;100.00;96758.47;1220452;75;3091888;-69
2023/08/05 08:45:39;;;;;;;3.45;2.20;;;;;;;16.82;100.00;96749.88;1223919;75;2928490;-69
2023/08/05 08:48:13;;;;;;;0.80;0.70;;;;;;;17.06;100.00;96757.06;1223923;75;2923702;-70
2023/08/05 08:50:49;;;;;;;1.75;0.70;;;;;;;16.75;100.00;96756.06;1223757;75;2923680;-68
2023/08/05 08:53:23;;;;;;;2.40;0.60;;;;;;;16.87;100.00;96753.78;1222632;75;2921838;-70
2023/08/05 08:55:56;;;;;;;0.75;0.40;;;;;;;16.87;100.00;96751.78;1224706;75;2921735;-69
2023/08/05 08:58:29;;;;;;;0.85;0.50;;;;;;;16.67;100.00;96738.66;1224260;75;2927356;-69
2023/08/05 09:01:02;;;;;;;1.10;0.50;;;;;;;16.89;100.00;96748.47;1224215;75;2926190;-70
2023/08/05 09:03:38;;;;;;;1.20;0.50;;;;;;;16.90;100.00;96753.44;1224170;75;2920936;-71
2023/08/05 09:06:13;;;;;;;0.50;0.40;;;;;;;16.93;100.00;96744.09;1224069;75;2932986;-68
2023/08/05 09:08:47;;;;;;;1.95;1.10;;;;;;;17.02;100.00;96749.09;1223681;75;2918017;-72
2023/08/05 09:11:19;;;;;;;2.35;1.60;;;;;;;17.08;100.00;96746.22;1223376;75;2921027;-71
2023/08/05 09:13:52;;;;;;;0.85;0.50;;;;;;;16.88;100.00;96730.38;1223667;75;2923752;-70
2023/08/05 09:16:26;;;;;;;0.60;0.40;;;;;;;16.87;100.00;96726.16;1224701;75;2919860;-69
2023/08/05 09:19:00;;;;;;;0.35;0.30;;;;;;;17.00;100.00;96745.41;1222873;83;2920831;-71
2023/08/05 09:21:36;;;;;;;0.50;0.40;;;;;;;17.13;100.00;96748.09;1223745;75;2921312;-72
2023/08/05 09:24:08;;;;;;;0.30;0.30;;;;;;;17.14;100.00;96744.03;1222361;75;2919551;-70
2023/08/05 09:26:41;;;;;;;1.00;0.45;;;;;;;17.20;100.00;96749.44;1224141;75;2920855;-71
2023/08/05 09:29:24;;;;;;;0.85;0.50;;;;;;;17.21;100.00;96745.38;1223245;75;2923580;-68
2023/08/05 09:32:01;;;;;;;2.15;0.30;;;;;;;17.19;100.00;96756.25;1223114;75;2918626;-68
2023/08/05 09:34:38;;;;;;;0.50;0.30;;;;;;;17.27;100.00;96757.03;1223824;75;2928026;-72
2023/08/05 09:37:13;;;;;;;1.20;0.30;;;;;;;17.08;100.00;96757.28;1224368;75;2926121;-72
2023/08/05 09:39:47;;;;;;;0.50;0.30;;;;;;;17.11;100.00;96742.38;1222742;75;2981915;-70
2023/08/05 09:42:23;;;;;;;0.40;0.30;;;;;;;16.95;100.00;96735.97;1222680;75;2924399;-70
2023/08/05 09:44:58;;;;;;;0.65;0.30;;;;;;;17.00;100.00;96731.59;1223492;75;2948608;-72
2023/08/05 09:47:31;;;;;;;0.85;0.20;;;;;;;17.06;100.00;96734.97;1219984;75;3023161;-70
2023/08/05 09:50:07;;;;;;;0.60;0.30;;;;;;;17.29;100.00;96754.44;1223700;75;2921665;-69
2023/08/05 09:52:43;;;;;;;0.30;0.25;;;;;;;17.38;100.00;96776.09;1222690;75;2932401;-67
2023/08/05 09:55:18;;;;;;;0.35;0.30;;;;;;;17.33;100.00;96777.00;1223662;75;2926872;-70
2023/08/05 09:57:53;;;;;;;0.50;0.40;;;;;;;16.98;100.00;96775.63;1223239;75;2922290;-67
2023/08/05 10:00:27;;;;;;;1.00;0.40;;;;;;;17.09;100.00;96786.41;1224161;75;2921894;-66
2023/08/05 10:03:04;;;;;;;0.65;0.20;;;;;;;17.28;100.00;96783.41;1222469;75;2933569;-68
2023/08/05 10:05:41;;;;;;;0.80;0.80;;;;;;;17.59;100.00;96783.63;1224103;75;2922019;-68
2023/08/05 10:08:19;;;;;;;1.10;0.95;;;;;;;17.49;100.00;96793.69;1223442;75;2924523;-69
2023/08/05 10:10:55;;;;;;;0.30;0.30;;;;;;;17.02;100.00;96801.66;1223291;75;2925960;-69
2023/08/05 10:13:28;;;;;;;0.80;0.50;;;;;;;16.93;100.00;96807.69;1223980;75;2919512;-69
2023/08/05 10:16:02;;;;;;;0.40;0.30;;;;;;;17.02;100.00;96809.22;1223431;75;2926374;-68
2023/08/05 10:18:37;;;;;;;0.20;0.20;;;;;;;17.16;100.00;96796.03;1223232;75;2924748;-67
2023/08/05 10:21:10;;;;;;;1.25;0.50;;;;;;;17.44;100.00;96787.78;1222886;75;2922586;-70
2023/08/05 10:23:45;;;;;;;0.60;0.20;;;;;;;17.68;100.00;96791.41;1223907;75;2921632;-70
2023/08/05 10:26:18;;;;;;;0.35;0.20;;;;;;;17.85;100.00;96785.44;1223839;75;2921287;-69
2023/08/05 10:28:50;;;;;;;1.80;1.60;;;;;;;17.81;100.00;96791.31;1223907;75;2922970;-69
2023/08/05 10:31:31;;;;;;;3.80;3.40;;;;;;;17.63;100.00;96786.75;1223278;75;2921700;-69
2023/08/05 10:34:21;;;;;;;5.65;3.30;;;;;;;17.69;100.00;96795.66;1222770;75;2925612;-70
2023/08/05 10:37:00;;;;;;;3.10;2.80;;;;;;;18.10;100.00;96797.53;1223902;75;2919692;-68
2023/08/05 10:39:50;;;;;;;1.90;1.70;;;;;;;18.10;100.00;96799.56;1223294;75;2923104;-67
2023/08/05 10:42:34;;;;;;;1.30;1.05;;;;;;;18.12;100.00;96797.00;1223746;75;2925822;-68
2023/08/05 10:45:12;;;;;;;1.35;0.95;;;;;;;18.22;100.00;96808.31;1224016;75;2927620;-71
2023/08/05 10:47:51;;;;;;;0.50;0.50;;;;;;;18.39;100.00;96805.03;1223952;75;2923513;-71
2023/08/05 10:50:23;;;;;;;0.45;0.40;;;;;;;18.59;100.00;96804.16;1223629;75;2922311;-73
2023/08/05 10:52:56;;;;;;;0.60;0.30;;;;;;;18.68;100.00;96797.31;1216260;75;3081102;-71
2023/08/05 10:55:31;;;;;;;0.40;0.30;;;;;;;18.52;100.00;96802.13;1223608;75;2929264;-71
2023/08/05 10:58:04;;;;;;;0.50;0.40;;;;;;;18.22;100.00;96813.84;1222887;75;2923087;-72
2023/08/05 11:00:44;;;;;;;1.00;0.60;;;;;;;17.92;100.00;96812.44;1220341;75;3033732;-68
2023/08/05 11:03:42;;;;;;;0.85;0.50;;;;;;;17.84;100.00;96809.59;1224175;75;2919904;-70
2023/08/05 11:06:17;;;;;;;0.40;0.30;;;;;;;18.00;100.00;96810.44;1223734;75;2921030;-71
2023/08/05 11:08:50;;;;;;;0.50;0.45;;;;;;;18.51;100.00;96806.16;1206912;75;4178189;-72
2023/08/05 11:11:25;;;;;;;0.50;0.50;;;;;;;18.28;100.00;96795.78;1222830;75;2928368;-72
2023/08/05 11:13:58;;;;;;;25.95;23.25;;;;;;;18.54;100.00;96796.75;1223990;75;2928476;-69
2023/08/05 11:16:31;;;;;;;14.20;12.70;;;;;;;18.36;100.00;96793.00;1223775;75;2926755;-70
2023/08/05 11:19:06;;;;;;;5.25;4.70;;;;;;;18.07;100.00;96789.59;1222450;75;2929719;-71
2023/08/05 11:21:40;;;;;;;2.90;1.40;;;;;;;18.04;100.00;96801.78;1223342;75;2923219;-67
2023/08/05 11:24:20;;;;;;;0.90;0.80;;;;;;;18.51;100.00;96787.50;1223995;75;2923480;-69
2023/08/05 11:26:55;;;;;;;1.20;0.70;;;;;;;18.22;100.00;96792.41;1223710;75;2922079;-67
2023/08/05 11:29:28;;;;;;;0.50;0.50;;;;;;;18.36;100.00;96795.06;1224312;75;2919583;-71
2023/08/05 11:32:01;;;;;;;1.00;0.40;;;;;;;18.26;100.00;96801.13;1223307;75;2927051;-70
2023/08/05 11:34:33;;;;;;;0.55;0.30;;;;;;;18.09;100.00;96803.63;1223964;75;2927290;-69
2023/08/05 11:37:06;;;;;;;2.65;0.60;;;;;;;17.75;100.00;96798.25;1223427;75;2935514;-71
2023/08/05 11:39:39;;;;;;;0.80;0.50;;;;;;;17.73;100.00;96803.63;1224145;75;2918364;-68